Time;durP1;ratioP1;P1;durP2;ratioP2;P2;SDS_P1;SDS_P2;PMS_P1;PMS_P2;Temp;Humidity;BMP_temperature;BMP_pressure;BME280_temperature;BME280_humidity;BME280_pressure;Samples;Min_cycle;Max_cycle;Signal;HPM_P1;HPM_P2
2021/09/12 00:01:23;;;;;;;34.43;31.57;;;;;;;;;;5033514;28;20449;-86
2021/09/12 00:03:50;;;;;;;35.50;32.43;;;;;;;;;;5036933;28;20430;-86
2021/09/12 00:06:17;;;;;;;35.93;32.90;;;;;;;;;;5036981;28;20447;-86
2021/09/12 00:08:45;;;;;;;35.77;32.67;;;;;;;;;;5037041;28;20437;-86
2021/09/12 00:11:12;;;;;;;35.43;32.50;;;;;;;;;;5036770;28;20927;-86
2021/09/12 00:13:42;;;;;;;37.47;34.07;;;;;;;;;;5036990;28;20819;-86
2021/09/12 00:16:09;;;;;;;37.50;34.07;;;;;;;;;;5036917;28;20482;-86
2021/09/12 00:18:37;;;;;;;39.63;36.07;;;;;;;;;;5036326;28;20485;-86
2021/09/12 00:21:04;;;;;;;37.00;33.60;;;;;;;;;;5036918;28;20509;-86
2021/09/12 00:23:31;;;;;;;37.67;34.17;;;;;;;;;;5036768;28;20453;-86
2021/09/12 00:25:59;;;;;;;38.17;34.57;;;;;;;;;;5036660;28;20415;-86
2021/09/12 00:28:26;;;;;;;37.90;34.40;;;;;;;;;;5036345;28;20878;-86
2021/09/12 00:30:55;;;;;;;40.97;37.00;;;;;;;;;;5036675;28;20418;-86
2021/09/12 00:33:23;;;;;;;39.70;35.90;;;;;;;;;;5036563;28;20795;-86
2021/09/12 00:35:50;;;;;;;37.73;34.20;;;;;;;;;;5036445;28;20834;-86
2021/09/12 00:38:17;;;;;;;38.77;35.27;;;;;;;;;;5036522;28;20445;-86
2021/09/12 00:40:45;;;;;;;39.13;35.10;;;;;;;;;;5036264;28;20435;-86
2021/09/12 00:43:12;;;;;;;39.97;36.07;;;;;;;;;;5037011;28;20532;-86
2021/09/12 00:45:40;;;;;;;39.33;35.80;;;;;;;;;;5018524;28;20455;-86
2021/09/12 00:48:11;;;;;;;40.40;36.10;;;;;;;;;;5018791;28;20443;-86
2021/09/12 00:50:38;;;;;;;39.10;35.53;;;;;;;;;;5036055;28;20434;-85
2021/09/12 00:53:06;;;;;;;40.73;36.80;;;;;;;;;;5018590;28;20421;-86
2021/09/12 00:55:33;;;;;;;41.70;37.80;;;;;;;;;;5035651;28;20468;-86
2021/09/12 00:58:01;;;;;;;39.20;35.60;;;;;;;;;;5036159;28;20434;-86
2021/09/12 01:00:28;;;;;;;40.90;36.90;;;;;;;;;;5018412;28;20934;-86
2021/09/12 01:02:56;;;;;;;41.77;37.97;;;;;;;;;;5036269;28;20446;-86
2021/09/12 01:05:25;;;;;;;41.40;37.47;;;;;;;;;;5035699;28;20441;-86
2021/09/12 01:07:53;;;;;;;41.83;37.83;;;;;;;;;;5035700;28;20436;-86
2021/09/12 01:10:21;;;;;;;40.77;36.90;;;;;;;;;;5035909;28;20792;-86
2021/09/12 01:12:48;;;;;;;42.57;38.37;;;;;;;;;;5018094;28;20442;-86
2021/09/12 01:15:15;;;;;;;41.37;37.30;;;;;;;;;;5034606;28;20488;-86
2021/09/12 01:17:43;;;;;;;39.77;36.07;;;;;;;;;;5035227;28;20416;-86
2021/09/12 01:20:11;;;;;;;40.03;36.40;;;;;;;;;;5035521;28;20983;-86
2021/09/12 01:22:40;;;;;;;41.93;37.80;;;;;;;;;;5036131;28;20446;-86
2021/09/12 01:25:10;;;;;;;42.07;37.97;;;;;;;;;;5035549;28;20958;-86
2021/09/12 01:27:38;;;;;;;41.97;37.87;;;;;;;;;;5035310;28;20446;-86
2021/09/12 01:30:06;;;;;;;41.83;37.70;;;;;;;;;;5035528;28;20438;-86
2021/09/12 01:32:33;;;;;;;41.10;37.17;;;;;;;;;;5035538;28;20442;-86
2021/09/12 01:35:00;;;;;;;42.17;38.37;;;;;;;;;;5035419;28;20446;-86
2021/09/12 01:37:28;;;;;;;43.17;39.17;;;;;;;;;;5034990;28;20481;-86
2021/09/12 01:39:55;;;;;;;41.87;37.67;;;;;;;;;;5035358;28;20792;-86
2021/09/12 01:42:24;;;;;;;40.90;37.10;;;;;;;;;;5035158;28;20922;-86
2021/09/12 01:44:53;;;;;;;40.40;36.60;;;;;;;;;;5034835;28;20455;-86
2021/09/12 01:47:21;;;;;;;42.20;38.07;;;;;;;;;;5034906;28;20941;-86
2021/09/12 01:49:48;;;;;;;42.93;38.93;;;;;;;;;;5035308;28;20438;-86
2021/09/12 01:52:16;;;;;;;44.23;39.93;;;;;;;;;;5034982;28;20854;-86
2021/09/12 01:54:43;;;;;;;42.97;38.80;;;;;;;;;;5034542;28;20437;-86
2021/09/12 01:57:11;;;;;;;43.07;38.97;;;;;;;;;;5017506;28;20454;-86
2021/09/12 01:59:40;;;;;;;41.67;37.47;;;;;;;;;;5034649;28;20445;-85
2021/09/12 02:02:07;;;;;;;43.57;39.40;;;;;;;;;;5034691;28;20444;-86
2021/09/12 02:04:35;;;;;;;40.50;36.60;;;;;;;;;;5034604;28;20532;-86
2021/09/12 02:07:02;;;;;;;42.33;38.03;;;;;;;;;;5034688;28;20450;-85
2021/09/12 02:09:29;;;;;;;42.37;38.27;;;;;;;;;;5034566;28;20435;-86
2021/09/12 02:11:57;;;;;;;42.07;37.73;;;;;;;;;;5034803;28;20435;-86
2021/09/12 02:14:25;;;;;;;42.37;38.27;;;;;;;;;;5034188;28;20444;-86
2021/09/12 02:16:53;;;;;;;43.13;39.07;;;;;;;;;;5034306;28;21074;-86
2021/09/12 02:19:21;;;;;;;43.33;39.30;;;;;;;;;;5034228;28;20490;-86
2021/09/12 02:21:48;;;;;;;41.17;37.17;;;;;;;;;;5034661;28;20417;-85
2021/09/12 02:24:16;;;;;;;44.40;40.00;;;;;;;;;;5034201;28;20927;-86
2021/09/12 02:26:43;;;;;;;41.80;37.43;;;;;;;;;;5033355;28;20427;-86
2021/09/12 02:29:11;;;;;;;39.77;35.67;;;;;;;;;;5034389;28;20445;-86
2021/09/12 02:31:38;;;;;;;43.93;39.53;;;;;;;;;;5034492;28;20439;-86
2021/09/12 02:34:07;;;;;;;42.73;38.53;;;;;;;;;;5034340;28;20435;-85
2021/09/12 02:36:34;;;;;;;42.70;38.17;;;;;;;;;;5033938;28;20503;-86
2021/09/12 02:39:01;;;;;;;41.83;37.90;;;;;;;;;;5034489;28;20419;-86
2021/09/12 02:41:29;;;;;;;44.43;38.97;;;;;;;;;;5034357;28;20453;-86
2021/09/12 02:43:56;;;;;;;41.07;37.17;;;;;;;;;;5033864;28;20427;-86
2021/09/12 02:46:23;;;;;;;42.20;38.00;;;;;;;;;;5033768;28;20443;-86
2021/09/12 02:48:51;;;;;;;44.00;39.30;;;;;;;;;;5016627;28;20450;-86
2021/09/12 02:51:20;;;;;;;44.90;40.07;;;;;;;;;;5034191;28;20440;-86
2021/09/12 02:53:47;;;;;;;43.70;39.20;;;;;;;;;;5034287;28;20811;-86
2021/09/12 02:56:14;;;;;;;43.93;39.33;;;;;;;;;;5034004;28;20992;-86
2021/09/12 02:58:42;;;;;;;42.40;38.10;;;;;;;;;;5033945;28;20460;-86
2021/09/12 03:01:09;;;;;;;44.40;39.67;;;;;;;;;;5016691;28;20803;-86
2021/09/12 03:03:36;;;;;;;42.73;38.40;;;;;;;;;;5034100;28;20480;-86
2021/09/12 03:06:04;;;;;;;42.47;38.07;;;;;;;;;;5033805;28;20448;-86
2021/09/12 03:08:33;;;;;;;44.47;39.33;;;;;;;;;;5033699;28;20425;-86
2021/09/12 03:11:00;;;;;;;42.27;37.87;;;;;;;;;;5033726;28;20445;-86
2021/09/12 03:13:27;;;;;;;40.03;36.03;;;;;;;;;;5033756;28;20450;-86
2021/09/12 03:15:55;;;;;;;42.07;37.87;;;;;;;;;;5033860;28;20470;-86
2021/09/12 03:18:22;;;;;;;42.27;38.07;;;;;;;;;;5033721;28;20488;-86
2021/09/12 03:20:49;;;;;;;37.93;34.23;;;;;;;;;;5016213;28;20418;-86
2021/09/12 03:23:17;;;;;;;38.73;35.07;;;;;;;;;;5033865;28;20796;-86
2021/09/12 03:25:46;;;;;;;36.20;32.83;;;;;;;;;;5033762;28;20897;-85
2021/09/12 03:28:13;;;;;;;35.13;31.97;;;;;;;;;;5033818;28;20454;-85
2021/09/12 03:30:41;;;;;;;34.93;31.70;;;;;;;;;;5033628;28;20415;-86
2021/09/12 03:33:08;;;;;;;31.77;29.03;;;;;;;;;;5033398;28;20440;-86
2021/09/12 03:35:35;;;;;;;33.43;30.73;;;;;;;;;;5033110;28;20470;-86
2021/09/12 03:38:03;;;;;;;32.60;29.90;;;;;;;;;;5035892;28;20426;-86
2021/09/12 03:40:30;;;;;;;31.17;28.60;;;;;;;;;;5037562;28;20434;-86
2021/09/12 03:42:59;;;;;;;31.00;28.30;;;;;;;;;;5019607;28;20449;-86
2021/09/12 03:45:26;;;;;;;31.10;28.70;;;;;;;;;;5037487;28;20781;-86
2021/09/12 03:47:54;;;;;;;29.37;26.80;;;;;;;;;;5037524;28;20464;-86
2021/09/12 03:50:21;;;;;;;29.40;26.90;;;;;;;;;;5037167;28;20798;-86
2021/09/12 03:52:49;;;;;;;28.47;26.20;;;;;;;;;;5037062;28;20419;-86
2021/09/12 03:55:16;;;;;;;27.37;25.07;;;;;;;;;;5037060;28;20448;-86
2021/09/12 03:57:44;;;;;;;25.80;23.70;;;;;;;;;;5019888;28;20484;-86
2021/09/12 04:00:14;;;;;;;27.07;24.87;;;;;;;;;;5003631;28;20428;-86
2021/09/12 04:02:41;;;;;;;26.67;24.83;;;;;;;;;;5037036;28;20934;-86
2021/09/12 04:05:09;;;;;;;25.53;23.83;;;;;;;;;;5037062;28;20416;-86
2021/09/12 04:07:37;;;;;;;26.87;24.67;;;;;;;;;;5036790;28;20458;-86
2021/09/12 04:10:04;;;;;;;27.40;25.57;;;;;;;;;;5037059;28;20427;-86
2021/09/12 04:12:32;;;;;;;28.00;26.13;;;;;;;;;;5036890;28;20943;-86
2021/09/12 04:14:59;;;;;;;28.60;26.40;;;;;;;;;;5036884;28;20435;-86
2021/09/12 04:17:28;;;;;;;26.97;25.17;;;;;;;;;;5037018;28;20456;-86
2021/09/12 04:19:55;;;;;;;27.97;25.97;;;;;;;;;;5036467;28;20475;-86
2021/09/12 04:22:23;;;;;;;27.67;25.83;;;;;;;;;;5036967;28;20456;-85
2021/09/12 04:24:50;;;;;;;27.13;25.30;;;;;;;;;;5019085;28;20826;-86
2021/09/12 04:27:18;;;;;;;26.00;24.20;;;;;;;;;;5036572;28;20438;-86
2021/09/12 04:29:45;;;;;;;25.53;23.80;;;;;;;;;;5036472;28;20461;-86
2021/09/12 04:32:12;;;;;;;26.60;24.57;;;;;;;;;;5036434;28;20433;-86
2021/09/12 04:34:43;;;;;;;25.83;24.10;;;;;;;;;;5036614;28;20477;-86
2021/09/12 04:37:10;;;;;;;28.83;26.43;;;;;;;;;;5036508;28;20477;-86
2021/09/12 04:39:38;;;;;;;28.70;26.00;;;;;;;;;;5036262;28;20450;-86
2021/09/12 04:42:06;;;;;;;27.90;25.80;;;;;;;;;;5036535;28;20438;-86
2021/09/12 04:44:33;;;;;;;28.57;26.17;;;;;;;;;;5035977;28;20918;-86
2021/09/12 04:47:00;;;;;;;30.57;27.77;;;;;;;;;;5036195;28;20421;-85
2021/09/12 04:49:28;;;;;;;28.70;26.27;;;;;;;;;;5035350;28;20427;-86
2021/09/12 04:51:57;;;;;;;29.27;26.53;;;;;;;;;;5036132;28;20907;-86
2021/09/12 04:54:24;;;;;;;27.03;24.70;;;;;;;;;;5036071;28;20454;-86
2021/09/12 04:56:51;;;;;;;28.20;25.87;;;;;;;;;;5036229;28;20494;-86
2021/09/12 04:59:19;;;;;;;28.20;25.90;;;;;;;;;;5018555;28;20424;-86
2021/09/12 05:01:46;;;;;;;30.00;27.40;;;;;;;;;;5036246;28;20436;-85
2021/09/12 05:04:14;;;;;;;29.27;26.57;;;;;;;;;;5036661;28;20424;-86
2021/09/12 05:06:42;;;;;;;27.93;25.23;;;;;;;;;;5035798;28;20426;-85
2021/09/12 05:09:10;;;;;;;31.17;28.37;;;;;;;;;;5035704;28;20411;-86
2021/09/12 05:11:38;;;;;;;27.70;25.20;;;;;;;;;;5035954;28;20527;-86
2021/09/12 05:14:05;;;;;;;28.90;25.83;;;;;;;;;;5035711;28;20421;-86
2021/09/12 05:16:33;;;;;;;27.97;25.77;;;;;;;;;;5035980;28;20480;-86
2021/09/12 05:19:00;;;;;;;27.90;25.60;;;;;;;;;;5035480;28;20459;-86
2021/09/12 05:21:28;;;;;;;28.63;26.00;;;;;;;;;;5035565;28;20418;-86
2021/09/12 05:23:55;;;;;;;30.00;27.00;;;;;;;;;;5018422;28;20441;-86
2021/09/12 05:26:24;;;;;;;28.67;26.20;;;;;;;;;;5035679;28;20789;-86
2021/09/12 05:28:51;;;;;;;31.60;28.20;;;;;;;;;;5035740;28;20432;-86
2021/09/12 05:31:19;;;;;;;30.57;27.67;;;;;;;;;;5035532;28;20442;-86
2021/09/12 05:33:46;;;;;;;29.20;26.90;;;;;;;;;;5035242;28;20447;-86
2021/09/12 05:36:13;;;;;;;31.47;28.60;;;;;;;;;;5035178;28;20486;-85
2021/09/12 05:38:41;;;;;;;33.47;28.17;;;;;;;;;;5035510;28;20840;-86
2021/09/12 05:41:08;;;;;;;33.00;29.97;;;;;;;;;;5035077;28;20441;-86
2021/09/12 05:43:37;;;;;;;31.57;28.80;;;;;;;;;;5034905;28;20441;-86
2021/09/12 05:46:05;;;;;;;30.77;27.87;;;;;;;;;;5035305;28;20430;-86
2021/09/12 05:48:32;;;;;;;26.53;24.43;;;;;;;;;;5034978;28;20949;-86
2021/09/12 05:50:59;;;;;;;29.90;27.10;;;;;;;;;;5035287;28;20437;-86
2021/09/12 05:53:27;;;;;;;29.20;26.80;;;;;;;;;;5017619;28;20436;-86
2021/09/12 05:55:55;;;;;;;30.77;28.17;;;;;;;;;;5034899;28;20453;-85
2021/09/12 05:58:22;;;;;;;31.63;28.23;;;;;;;;;;5034945;28;20456;-85
2021/09/12 06:00:51;;;;;;;31.00;28.10;;;;;;;;;;5034206;28;20444;-81
2021/09/12 06:03:18;;;;;;;29.23;26.60;;;;;;;;;;5034294;28;20449;-81
2021/09/12 06:05:49;;;;;;;29.23;26.63;;;;;;;;;;5034516;28;20440;-81
2021/09/12 06:08:16;;;;;;;31.10;28.20;;;;;;;;;;5034521;28;20450;-81
2021/09/12 06:10:43;;;;;;;28.93;25.90;;;;;;;;;;5034287;28;20441;-81
2021/09/12 06:13:11;;;;;;;29.63;26.93;;;;;;;;;;5033979;28;20436;-81
2021/09/12 06:15:38;;;;;;;31.67;28.57;;;;;;;;;;5033991;28;20414;-81
2021/09/12 06:18:07;;;;;;;29.70;26.97;;;;;;;;;;5033592;28;20861;-81
2021/09/12 06:20:34;;;;;;;30.73;27.93;;;;;;;;;;5034321;28;20435;-81
2021/09/12 06:23:02;;;;;;;31.47;28.07;;;;;;;;;;5034166;28;20408;-82
2021/09/12 06:25:29;;;;;;;32.87;29.63;;;;;;;;;;5034254;28;20426;-82
2021/09/12 06:27:57;;;;;;;34.77;31.40;;;;;;;;;;5033494;28;20795;-82
2021/09/12 06:30:24;;;;;;;35.70;32.00;;;;;;;;;;5034147;28;20782;-81
2021/09/12 06:32:52;;;;;;;34.23;30.97;;;;;;;;;;5033833;28;20484;-81
2021/09/12 06:35:22;;;;;;;35.03;31.60;;;;;;;;;;5033923;28;20791;-82
2021/09/12 06:37:50;;;;;;;34.87;31.83;;;;;;;;;;5034042;28;20485;-81
2021/09/12 06:40:17;;;;;;;36.33;32.20;;;;;;;;;;5034049;28;20441;-81
2021/09/12 06:42:45;;;;;;;38.03;34.20;;;;;;;;;;5033436;28;20416;-82
2021/09/12 06:45:12;;;;;;;36.23;32.73;;;;;;;;;;5033860;28;20444;-81
2021/09/12 06:47:40;;;;;;;38.20;34.30;;;;;;;;;;5033543;28;20403;-82
2021/09/12 06:50:08;;;;;;;37.73;34.20;;;;;;;;;;5033522;28;20985;-81
2021/09/12 06:52:37;;;;;;;38.60;34.57;;;;;;;;;;5033826;28;20424;-81
2021/09/12 06:55:04;;;;;;;38.20;34.13;;;;;;;;;;5033509;28;20447;-82
2021/09/12 06:57:32;;;;;;;35.93;32.53;;;;;;;;;;5033471;28;20483;-81
2021/09/12 06:59:59;;;;;;;38.50;34.47;;;;;;;;;;5033743;28;20448;-82
2021/09/12 07:02:26;;;;;;;38.90;35.00;;;;;;;;;;5033304;28;20436;-81
2021/09/12 07:04:54;;;;;;;39.67;35.70;;;;;;;;;;5033647;28;20453;-81
2021/09/12 07:07:21;;;;;;;41.17;36.57;;;;;;;;;;5033409;28;20444;-81
2021/09/12 07:09:50;;;;;;;38.47;34.43;;;;;;;;;;5033714;28;20408;-81
2021/09/12 07:12:17;;;;;;;41.13;36.47;;;;;;;;;;5035937;28;20435;-81
2021/09/12 07:14:44;;;;;;;39.67;35.63;;;;;;;;;;5037615;28;20434;-81
2021/09/12 07:17:13;;;;;;;38.53;35.07;;;;;;;;;;5037685;28;20484;-81
2021/09/12 07:19:40;;;;;;;37.57;33.83;;;;;;;;;;5037088;28;20562;-82
2021/09/12 07:22:07;;;;;;;38.20;34.87;;;;;;;;;;5037278;28;20412;-82
2021/09/12 07:24:35;;;;;;;36.10;32.60;;;;;;;;;;5037315;28;20411;-81
2021/09/12 07:27:04;;;;;;;38.93;34.53;;;;;;;;;;5037287;28;20436;-82
2021/09/12 07:29:32;;;;;;;38.60;34.60;;;;;;;;;;5037169;28;20411;-82
2021/09/12 07:31:59;;;;;;;35.70;32.67;;;;;;;;;;5019639;28;20425;-82
2021/09/12 07:34:27;;;;;;;36.03;32.60;;;;;;;;;;5037053;28;20460;-81
2021/09/12 07:36:54;;;;;;;36.73;33.27;;;;;;;;;;5036891;28;20484;-82
2021/09/12 07:39:22;;;;;;;39.07;35.20;;;;;;;;;;5036907;28;20821;-82
2021/09/12 07:41:49;;;;;;;38.13;34.60;;;;;;;;;;5036750;28;20779;-82
2021/09/12 07:44:18;;;;;;;38.87;34.97;;;;;;;;;;5037019;28;20414;-82
2021/09/12 07:46:46;;;;;;;37.83;33.90;;;;;;;;;;5036874;28;20423;-81
2021/09/12 07:49:13;;;;;;;38.57;34.63;;;;;;;;;;5036848;28;20441;-81
2021/09/12 07:51:40;;;;;;;39.00;35.03;;;;;;;;;;5036755;28;20496;-85
2021/09/12 07:54:08;;;;;;;39.03;34.87;;;;;;;;;;5036884;28;20415;-81
2021/09/12 07:56:36;;;;;;;39.40;35.60;;;;;;;;;;5036618;28;20443;-81
2021/09/12 07:59:03;;;;;;;38.60;35.13;;;;;;;;;;5002896;28;20420;-82
2021/09/12 08:01:32;;;;;;;37.20;33.60;;;;;;;;;;5018911;28;21009;-81
2021/09/12 08:03:59;;;;;;;38.00;34.30;;;;;;;;;;5036464;28;20416;-82
2021/09/12 08:06:27;;;;;;;36.90;33.17;;;;;;;;;;5036817;28;20427;-82
2021/09/12 08:08:54;;;;;;;37.47;34.07;;;;;;;;;;5036475;28;20423;-82
2021/09/12 08:11:21;;;;;;;36.57;33.13;;;;;;;;;;5036472;28;20441;-82
2021/09/12 08:13:49;;;;;;;36.00;32.60;;;;;;;;;;5036315;28;20419;-81
2021/09/12 08:16:16;;;;;;;36.67;32.97;;;;;;;;;;5036345;28;20416;-81
2021/09/12 08:18:45;;;;;;;36.00;32.70;;;;;;;;;;5036234;28;20472;-82
2021/09/12 08:21:12;;;;;;;37.70;34.07;;;;;;;;;;5036542;28;20476;-82
2021/09/12 08:23:40;;;;;;;34.60;31.70;;;;;;;;;;5035888;28;20453;-81
2021/09/12 08:26:07;;;;;;;31.57;29.07;;;;;;;;;;5032419;28;20438;-81
2021/09/12 08:28:35;;;;;;;32.87;29.93;;;;;;;;;;5016330;28;20788;-82
2021/09/12 08:31:02;;;;;;;33.17;30.17;;;;;;;;;;5016328;28;20440;-82
2021/09/12 08:33:30;;;;;;;31.43;28.50;;;;;;;;;;5016434;28;20446;-82
2021/09/12 08:35:59;;;;;;;30.10;27.50;;;;;;;;;;5016403;28;20477;-82
2021/09/12 08:38:26;;;;;;;31.87;29.07;;;;;;;;;;4998768;28;20560;-82
2021/09/12 08:40:57;;;;;;;30.23;27.37;;;;;;;;;;5016355;28;20434;-82
2021/09/12 08:43:25;;;;;;;28.77;26.43;;;;;;;;;;5016149;28;20438;-82
2021/09/12 08:45:52;;;;;;;28.60;26.13;;;;;;;;;;5016241;28;20420;-82
2021/09/12 08:48:20;;;;;;;26.97;24.87;;;;;;;;;;5015905;28;20936;-82
2021/09/12 08:50:47;;;;;;;29.27;26.13;;;;;;;;;;5016260;28;20416;-82
2021/09/12 08:53:16;;;;;;;28.30;25.83;;;;;;;;;;5016159;28;20474;-82
2021/09/12 08:55:44;;;;;;;26.77;24.83;;;;;;;;;;5016061;28;20443;-82
2021/09/12 08:58:11;;;;;;;28.13;26.00;;;;;;;;;;5015102;28;20483;-82
2021/09/12 09:00:43;;;;;;;26.00;23.97;;;;;;;;;;5015519;28;20431;-83
2021/09/12 09:03:11;;;;;;;27.30;25.30;;;;;;;;;;5016098;28;20442;-82
2021/09/12 09:05:40;;;;;;;24.00;22.10;;;;;;;;;;4998855;28;20458;-85
2021/09/12 09:08:08;;;;;;;24.80;22.70;;;;;;;;;;4999087;28;20443;-84
2021/09/12 09:10:46;;;;;;;24.67;22.73;;;;;;;;;;5015811;28;20420;-87
2021/09/12 09:13:30;;;;;;;24.60;22.70;;;;;;;;;;5014519;28;20452;-81
2021/09/12 09:15:58;;;;;;;23.70;22.03;;;;;;;;;;5015367;28;20513;-81
2021/09/12 09:18:33;;;;;;;25.10;22.90;;;;;;;;;;5013997;28;20513;-80
2021/09/12 09:21:00;;;;;;;26.03;23.83;;;;;;;;;;5015621;28;20444;-81
2021/09/12 09:23:28;;;;;;;27.37;25.17;;;;;;;;;;5015246;28;20448;-80
2021/09/12 09:25:57;;;;;;;27.67;25.77;;;;;;;;;;5015400;28;20422;-81
2021/09/12 09:28:24;;;;;;;26.77;24.93;;;;;;;;;;5015202;28;20420;-81
2021/09/12 09:30:54;;;;;;;27.33;25.30;;;;;;;;;;5014915;28;20785;-81
2021/09/12 09:33:23;;;;;;;26.83;24.83;;;;;;;;;;5015356;28;20465;-81
2021/09/12 09:35:51;;;;;;;28.03;25.93;;;;;;;;;;5014556;28;20516;-81
2021/09/12 09:38:20;;;;;;;30.33;27.73;;;;;;;;;;5015684;28;20482;-81
2021/09/12 09:41:08;;;;;;;29.10;26.90;;;;;;;;;;5015041;28;20438;-81
2021/09/12 09:43:39;;;;;;;30.60;28.27;;;;;;;;;;5015371;28;20420;-81
2021/09/12 09:46:07;;;;;;;30.00;27.67;;;;;;;;;;5015177;28;20439;-81
2021/09/12 09:48:35;;;;;;;29.90;27.63;;;;;;;;;;5015031;28;20436;-81
2021/09/12 09:51:03;;;;;;;26.80;24.83;;;;;;;;;;5014757;28;20906;-81
2021/09/12 09:53:35;;;;;;;28.77;26.57;;;;;;;;;;5014874;28;20459;-81
2021/09/12 09:56:03;;;;;;;27.03;24.90;;;;;;;;;;5014701;28;20917;-81
2021/09/12 09:58:33;;;;;;;25.87;23.80;;;;;;;;;;4997497;28;20468;-81
2021/09/12 10:01:02;;;;;;;27.43;25.47;;;;;;;;;;5014848;28;20533;-81
2021/09/12 10:03:30;;;;;;;28.80;26.47;;;;;;;;;;5014785;28;20793;-81
2021/09/12 10:05:58;;;;;;;27.43;25.43;;;;;;;;;;5014794;28;20422;-81
2021/09/12 10:08:27;;;;;;;27.73;25.60;;;;;;;;;;5014472;28;20490;-81
2021/09/12 10:10:54;;;;;;;27.47;25.33;;;;;;;;;;5014668;28;20417;-80
2021/09/12 10:13:23;;;;;;;27.07;25.17;;;;;;;;;;5014552;28;20509;-80
2021/09/12 10:15:55;;;;;;;26.57;24.13;;;;;;;;;;5014639;28;20439;-81
2021/09/12 10:18:25;;;;;;;26.90;24.80;;;;;;;;;;5014077;28;20505;-81
2021/09/12 10:20:54;;;;;;;26.70;24.27;;;;;;;;;;5014241;28;20472;-81
2021/09/12 10:23:21;;;;;;;25.30;23.33;;;;;;;;;;5014479;28;20508;-80
2021/09/12 10:25:56;;;;;;;26.50;23.97;;;;;;;;;;5014478;28;20798;-81
2021/09/12 10:28:28;;;;;;;25.30;23.60;;;;;;;;;;5014155;28;20439;-80
2021/09/12 10:30:57;;;;;;;24.40;22.90;;;;;;;;;;5014132;28;20443;-81
2021/09/12 10:33:25;;;;;;;24.37;22.70;;;;;;;;;;5014304;28;20448;-80
2021/09/12 10:35:54;;;;;;;26.83;24.80;;;;;;;;;;5013918;28;20480;-81
2021/09/12 10:38:25;;;;;;;24.43;22.77;;;;;;;;;;5013965;28;20479;-81
2021/09/12 10:41:12;;;;;;;24.73;22.73;;;;;;;;;;5013952;28;20451;-81
2021/09/12 10:43:44;;;;;;;25.17;23.13;;;;;;;;;;4996436;28;20447;-81
2021/09/12 10:46:34;;;;;;;25.03;23.40;;;;;;;;;;5013258;28;20442;-81
2021/09/12 10:49:14;;;;;;;25.00;23.40;;;;;;;;;;5014153;28;20439;-81
2021/09/12 10:51:42;;;;;;;24.60;22.43;;;;;;;;;;5014088;28;20490;-81
2021/09/12 10:54:09;;;;;;;24.33;22.50;;;;;;;;;;5013736;28;20446;-80
2021/09/12 10:56:38;;;;;;;23.80;21.80;;;;;;;;;;5013720;28;20434;-81
2021/09/12 10:59:07;;;;;;;24.33;22.73;;;;;;;;;;5013680;28;20527;-81
2021/09/12 11:01:39;;;;;;;23.73;21.90;;;;;;;;;;5013832;28;20989;-81
2021/09/12 11:04:06;;;;;;;23.60;22.20;;;;;;;;;;5013939;28;20440;-81
2021/09/12 11:06:35;;;;;;;23.77;22.17;;;;;;;;;;5013840;28;20857;-80
2021/09/12 11:09:04;;;;;;;25.83;23.33;;;;;;;;;;5013607;28;20447;-81
2021/09/12 11:11:31;;;;;;;23.47;22.07;;;;;;;;;;5013591;28;20442;-80
2021/09/12 11:13:59;;;;;;;22.43;20.87;;;;;;;;;;5013408;28;20940;-80
2021/09/12 11:16:27;;;;;;;24.73;22.87;;;;;;;;;;5013590;28;20953;-81
2021/09/12 11:18:58;;;;;;;26.27;23.77;;;;;;;;;;5013435;28;20509;-81
2021/09/12 11:21:31;;;;;;;22.73;21.13;;;;;;;;;;5013475;28;20927;-81
2021/09/12 11:24:03;;;;;;;23.80;22.10;;;;;;;;;;5013450;28;20447;-81
2021/09/12 11:26:38;;;;;;;24.37;22.57;;;;;;;;;;5013734;28;20830;-81
2021/09/12 11:29:06;;;;;;;23.83;22.13;;;;;;;;;;5013397;28;20449;-81
2021/09/12 11:31:35;;;;;;;24.03;22.50;;;;;;;;;;5013450;28;20439;-81
2021/09/12 11:34:04;;;;;;;23.13;21.73;;;;;;;;;;5013395;28;20529;-82
2021/09/12 11:36:44;;;;;;;25.27;23.40;;;;;;;;;;5013334;28;20473;-80
2021/09/12 11:39:12;;;;;;;24.87;23.27;;;;;;;;;;5013197;28;20498;-80
2021/09/12 11:41:41;;;;;;;26.47;24.30;;;;;;;;;;5013365;28;20443;-80
2021/09/12 11:44:09;;;;;;;27.27;25.43;;;;;;;;;;5013190;28;20934;-82
2021/09/12 11:46:36;;;;;;;24.80;23.07;;;;;;;;;;5013558;28;20522;-80
2021/09/12 11:49:06;;;;;;;23.80;22.40;;;;;;;;;;5469786;23;20499;-86
2021/09/12 11:51:35;;;;;;;24.70;23.20;;;;;;;;;;5033144;28;20438;-87
2021/09/12 11:54:06;;;;;;;26.33;24.53;;;;;;;;;;5033880;28;20942;-87
2021/09/12 11:56:34;;;;;;;26.40;24.47;;;;;;;;;;5033280;28;20439;-87
2021/09/12 11:59:02;;;;;;;25.37;23.67;;;;;;;;;;5035536;28;20456;-86
2021/09/12 12:01:30;;;;;;;23.80;22.30;;;;;;;;;;5034791;28;20768;-87
2021/09/12 12:03:58;;;;;;;24.87;23.13;;;;;;;;;;5037211;28;20462;-88
2021/09/12 12:06:27;;;;;;;23.97;22.27;;;;;;;;;;5037204;28;20424;-87
2021/09/12 12:09:12;;;;;;;23.83;22.33;;;;;;;;;;5037052;28;20432;-87
2021/09/12 12:11:41;;;;;;;24.50;23.00;;;;;;;;;;5019450;28;20429;-87
2021/09/12 12:14:10;;;;;;;23.67;22.17;;;;;;;;;;5037577;28;20442;-88
2021/09/12 12:16:43;;;;;;;24.13;22.20;;;;;;;;;;5037358;28;20446;-88
2021/09/12 12:19:12;;;;;;;22.90;21.50;;;;;;;;;;5037072;28;20482;-88
2021/09/12 12:21:41;;;;;;;24.67;22.50;;;;;;;;;;5036901;28;20424;-88
2021/09/12 12:24:12;;;;;;;23.90;22.50;;;;;;;;;;5019464;28;20458;-88
2021/09/12 12:26:41;;;;;;;24.30;22.50;;;;;;;;;;5037156;28;20794;-88
2021/09/12 12:29:08;;;;;;;25.77;23.93;;;;;;;;;;5036974;28;20479;-88
2021/09/12 12:31:37;;;;;;;23.50;21.93;;;;;;;;;;5037104;28;20470;-87
2021/09/12 12:34:04;;;;;;;25.03;23.00;;;;;;;;;;5037163;28;20504;-88
2021/09/12 12:36:32;;;;;;;24.87;23.10;;;;;;;;;;5020076;28;21003;-88
2021/09/12 12:39:13;;;;;;;24.30;22.80;;;;;;;;;;5036375;28;20497;-88
2021/09/12 12:41:51;;;;;;;24.87;23.03;;;;;;;;;;5036768;28;20435;-87
2021/09/12 12:44:19;;;;;;;26.33;24.33;;;;;;;;;;5036682;28;20466;-87
2021/09/12 12:46:46;;;;;;;25.50;23.80;;;;;;;;;;5034916;28;20438;-87
2021/09/12 12:49:14;;;;;;;25.10;23.43;;;;;;;;;;5016372;28;20988;-87
2021/09/12 12:51:41;;;;;;;25.37;23.57;;;;;;;;;;5016949;28;20444;-87
2021/09/12 12:54:20;;;;;;;24.23;22.63;;;;;;;;;;5016837;28;20486;-87
2021/09/12 12:56:47;;;;;;;25.80;23.90;;;;;;;;;;5016446;28;20994;-87
2021/09/12 12:59:19;;;;;;;25.13;23.47;;;;;;;;;;5017026;28;20483;-87
2021/09/12 13:01:47;;;;;;;24.43;22.83;;;;;;;;;;4999380;28;20521;-87
2021/09/12 13:04:14;;;;;;;25.10;23.33;;;;;;;;;;5016465;28;20432;-87
2021/09/12 13:32:09;;;;;;;26.00;24.40;;;;;;;;;;5174426;27;20282;-91
2021/09/12 13:34:37;;;;;;;25.53;23.97;;;;;;;;;;5174442;27;20439;-95
2021/09/12 13:37:04;;;;;;;25.23;23.53;;;;;;;;;;5174101;27;20444;-89
2021/09/12 13:39:32;;;;;;;24.50;23.07;;;;;;;;;;5173836;27;20433;-85
2021/09/12 13:41:59;;;;;;;25.73;24.10;;;;;;;;;;5174088;27;20430;-81
2021/09/12 13:44:26;;;;;;;26.17;24.23;;;;;;;;;;5173206;27;20425;-81
2021/09/12 13:46:54;;;;;;;26.50;24.70;;;;;;;;;;5173244;27;20441;-81
2021/09/12 13:49:23;;;;;;;26.37;24.63;;;;;;;;;;5172808;27;20917;-82
2021/09/12 13:51:50;;;;;;;25.73;24.23;;;;;;;;;;5172973;27;20443;-81
2021/09/12 13:54:18;;;;;;;26.37;24.33;;;;;;;;;;5172791;27;20805;-81
2021/09/12 13:56:45;;;;;;;26.27;24.60;;;;;;;;;;5173359;27;20416;-81
2021/09/12 13:59:12;;;;;;;27.27;25.27;;;;;;;;;;5172918;27;20415;-81
2021/09/12 14:01:40;;;;;;;25.77;24.17;;;;;;;;;;5172725;27;20476;-81
2021/09/12 14:04:07;;;;;;;26.27;24.57;;;;;;;;;;5173004;27;20435;-81
2021/09/12 14:06:36;;;;;;;26.87;25.27;;;;;;;;;;5172897;27;20412;-81
2021/09/12 14:09:04;;;;;;;26.30;24.70;;;;;;;;;;5172613;27;20431;-80
2021/09/12 14:11:32;;;;;;;26.93;25.13;;;;;;;;;;5172572;27;20448;-80
2021/09/12 14:13:59;;;;;;;26.60;24.77;;;;;;;;;;5172573;27;20436;-81
2021/09/12 14:16:26;;;;;;;26.53;24.80;;;;;;;;;;5172399;27;20436;-80
2021/09/12 14:18:54;;;;;;;25.77;23.77;;;;;;;;;;5172573;27;20823;-80
2021/09/12 14:21:21;;;;;;;27.33;25.57;;;;;;;;;;5171942;27;20492;-79
2021/09/12 14:23:50;;;;;;;25.80;24.20;;;;;;;;;;5172264;27;20440;-80
2021/09/12 14:26:17;;;;;;;26.70;24.63;;;;;;;;;;5172573;27;20433;-82
2021/09/12 14:28:44;;;;;;;28.03;25.90;;;;;;;;;;5172516;27;20445;-79
2021/09/12 14:31:16;;;;;;;26.20;24.50;;;;;;;;;;5169054;27;20488;-80
2021/09/12 14:33:43;;;;;;;26.43;24.40;;;;;;;;;;5158021;27;20928;-80
2021/09/12 14:36:10;;;;;;;25.80;24.20;;;;;;;;;;5158156;27;20441;-79
2021/09/12 14:38:38;;;;;;;25.80;24.23;;;;;;;;;;5158843;27;20441;-78
2021/09/12 14:41:07;;;;;;;26.27;24.27;;;;;;;;;;5157821;27;20473;-80
2021/09/12 14:43:34;;;;;;;26.00;24.40;;;;;;;;;;5158231;27;20437;-79
2021/09/12 14:46:02;;;;;;;25.97;24.00;;;;;;;;;;5158139;27;20881;-80
2021/09/12 14:48:29;;;;;;;26.60;24.90;;;;;;;;;;5158202;27;20416;-80